Time;durP1;ratioP1;P1;durP2;ratioP2;P2;SDS_P1;SDS_P2;PMS_P1;PMS_P2;Temp;Humidity;BMP_temperature;BMP_pressure;BME280_temperature;BME280_humidity;BME280_pressure;Samples;Min_cycle;Max_cycle;Signal;HPM_P1;HPM_P2
2022/04/01 00:01:08;;;;;;;3.95;2.72;;;;;;;16.29;43.22;91122.03;5011743;28;20420;-86
2022/04/01 00:03:34;;;;;;;4.80;2.83;;;;;;;16.28;43.57;91115.13;5012218;28;20412;-86
2022/04/01 00:05:59;;;;;;;3.35;2.55;;;;;;;16.30;43.20;91116.03;5012655;28;20396;-85
2022/04/01 00:08:25;;;;;;;4.15;2.70;;;;;;;16.28;43.49;91110.41;5011846;28;20400;-86
2022/04/01 00:10:50;;;;;;;3.88;2.47;;;;;;;16.29;43.04;91108.41;5029063;28;20037;-86
2022/04/01 00:13:15;;;;;;;5.30;2.92;;;;;;;16.29;43.33;91120.03;5011682;28;20044;-86
2022/04/01 00:15:41;;;;;;;4.65;2.95;;;;;;;16.28;43.32;91124.03;4995815;28;20370;-86
2022/04/01 00:18:06;;;;;;;4.55;2.65;;;;;;;16.28;43.32;91120.59;5011667;28;20434;-86
2022/04/01 00:20:32;;;;;;;3.50;3.15;;;;;;;16.29;43.49;91116.59;5012515;28;20369;-86
2022/04/01 00:22:57;;;;;;;6.15;2.67;;;;;;;16.28;43.26;91118.59;5028545;28;20729;-86
2022/04/01 00:25:23;;;;;;;3.30;2.35;;;;;;;16.28;43.35;91109.69;4995149;28;20389;-86
2022/04/01 00:27:50;;;;;;;4.78;2.58;;;;;;;16.29;43.32;91111.13;5012343;28;20075;-86
2022/04/01 00:30:16;;;;;;;3.65;2.63;;;;;;;16.28;43.40;91120.59;5012100;28;20060;-86
2022/04/01 00:32:41;;;;;;;3.40;2.10;;;;;;;16.28;42.83;91117.88;5011567;28;20021;-86
2022/04/01 00:35:07;;;;;;;4.47;2.58;;;;;;;16.26;43.35;91121.13;4995036;28;20522;-86
2022/04/01 00:37:33;;;;;;;3.90;3.10;;;;;;;16.27;43.26;91114.41;5010810;28;20114;-86
2022/04/01 00:39:58;;;;;;;4.75;3.05;;;;;;;16.26;43.40;91114.97;5010768;28;20558;-86
2022/04/01 00:42:25;;;;;;;3.40;2.85;;;;;;;16.26;42.90;91126.59;4994278;28;20041;-86
2022/04/01 00:44:51;;;;;;;3.88;2.60;;;;;;;16.26;43.10;91128.59;4995864;28;20044;-87
2022/04/01 00:47:17;;;;;;;3.33;2.20;;;;;;;16.27;42.92;91124.59;5007239;28;20029;-87
2022/04/01 00:49:43;;;;;;;4.32;2.88;;;;;;;16.27;42.94;91127.31;5011813;28;20065;-86
2022/04/01 00:52:17;;;;;;;2.20;2.00;;;;;;;16.27;43.01;91119.88;4994708;28;20036;-86
2022/04/01 00:54:43;;;;;;;3.45;2.45;;;;;;;16.28;42.99;91115.84;4995637;28;20041;-86
2022/04/01 00:57:10;;;;;;;2.97;2.53;;;;;;;16.27;43.11;91122.59;5011413;28;20044;-86
2022/04/01 00:59:36;;;;;;;3.53;2.42;;;;;;;16.26;43.01;91121.13;5012212;28;20033;-87
2022/04/01 01:02:02;;;;;;;3.08;2.42;;;;;;;16.26;42.97;91109.50;5010931;28;20034;-86
2022/04/01 01:04:28;;;;;;;3.75;2.60;;;;;;;16.26;42.96;91112.25;5011275;28;20064;-85
2022/04/01 01:06:55;;;;;;;3.53;2.40;;;;;;;16.25;43.03;91114.22;4995329;28;20036;-86
2022/04/01 01:09:22;;;;;;;2.67;2.28;;;;;;;16.25;43.15;91106.06;5011680;28;20396;-86
2022/04/01 01:11:49;;;;;;;4.10;2.60;;;;;;;16.27;42.93;91108.22;5015339;28;20541;-86
2022/04/01 01:14:15;;;;;;;2.85;2.42;;;;;;;16.27;42.64;91108.97;5015339;28;20076;-86
2022/04/01 01:16:42;;;;;;;3.42;2.40;;;;;;;16.26;42.66;91117.69;5019230;28;20041;-86
2022/04/01 01:19:12;;;;;;;5.38;2.72;;;;;;;16.25;43.10;91111.50;5015075;28;20033;-86
2022/04/01 01:21:38;;;;;;;3.70;2.50;;;;;;;16.26;42.61;91118.41;5015605;28;20409;-87
2022/04/01 01:24:05;;;;;;;3.03;2.63;;;;;;;16.26;43.04;91115.69;4994701;28;20030;-87
2022/04/01 01:26:31;;;;;;;3.50;2.65;;;;;;;16.24;42.62;91112.78;4995356;28;20412;-88
2022/04/01 01:28:57;;;;;;;2.92;2.30;;;;;;;16.24;42.98;91115.50;5012567;28;20503;-86
2022/04/01 01:31:23;;;;;;;3.15;2.50;;;;;;;16.24;42.98;91126.41;5011176;28;20128;-86
2022/04/01 01:33:49;;;;;;;3.33;2.55;;;;;;;16.25;42.90;91116.22;4995341;28;20120;-86
2022/04/01 01:36:14;;;;;;;2.90;2.40;;;;;;;16.23;42.86;91116.81;5009697;28;20037;-88
2022/04/01 01:38:40;;;;;;;3.97;2.42;;;;;;;16.24;42.94;91109.38;5015088;28;20044;-86
2022/04/01 01:41:05;;;;;;;3.20;2.70;;;;;;;16.24;42.96;91107.34;5014698;28;20033;-86
2022/04/01 01:43:31;;;;;;;2.95;2.35;;;;;;;16.23;42.78;91103.19;5003028;28;20115;-88
2022/04/01 01:45:56;;;;;;;3.75;3.00;;;;;;;16.23;42.71;91105.91;4983912;28;20404;-89
2022/04/01 01:48:22;;;;;;;3.53;2.38;;;;;;;16.23;42.80;91102.47;5011417;28;20128;-86
2022/04/01 01:56:17;;;;;;;4.93;2.83;;;;;;;16.22;42.52;91101.72;5027203;28;20037;-86
2022/04/01 01:58:43;;;;;;;3.25;2.30;;;;;;;16.23;42.52;91107.91;5028191;28;20041;-87
2022/04/01 02:01:09;;;;;;;3.17;2.30;;;;;;;16.23;42.45;91103.19;5010585;28;20516;-86
2022/04/01 02:03:35;;;;;;;2.72;2.08;;;;;;;16.23;42.77;91100.47;5010688;28;20045;-86
2022/04/01 02:06:00;;;;;;;2.97;2.10;;;;;;;16.24;42.50;91098.47;5027591;28;20033;-87
2022/04/01 02:08:26;;;;;;;4.03;2.63;;;;;;;16.23;42.57;91100.47;5009753;28;20584;-86
2022/04/01 02:10:51;;;;;;;2.95;2.10;;;;;;;16.23;42.45;91091.56;5009463;28;20038;-87
2022/04/01 02:13:17;;;;;;;2.67;2.10;;;;;;;16.21;42.66;91091.38;5026446;28;20037;-86
2022/04/01 02:15:43;;;;;;;3.90;2.30;;;;;;;16.21;42.72;91094.84;5027983;28;20111;-89
2022/04/01 02:18:10;;;;;;;3.42;2.47;;;;;;;16.21;42.70;91081.19;5026834;28;20496;-88
2022/04/01 02:20:36;;;;;;;3.25;2.17;;;;;;;16.20;42.51;91087.94;5027107;28;20124;-86
2022/04/01 02:23:03;;;;;;;3.00;2.55;;;;;;;16.19;42.57;91085.75;5000428;28;20029;-87
2022/04/01 02:25:29;;;;;;;3.22;2.20;;;;;;;16.19;42.20;91088.47;4986064;28;20499;-89
2022/04/01 02:27:55;;;;;;;4.65;2.30;;;;;;;16.19;42.58;91086.47;4978407;28;20523;-86
2022/04/01 02:30:20;;;;;;;2.55;1.63;;;;;;;16.20;42.32;91089.94;5010221;28;20045;-89
2022/04/01 02:32:47;;;;;;;2.90;2.15;;;;;;;16.19;42.45;91091.94;5010878;28;20405;-86
2022/04/01 02:35:12;;;;;;;3.17;2.20;;;;;;;16.21;42.16;91094.84;4993771;28;20029;-86
2022/04/01 02:37:39;;;;;;;1.98;1.55;;;;;;;16.22;42.48;91096.28;4977931;28;20073;-87
2022/04/01 02:40:05;;;;;;;3.63;2.45;;;;;;;16.21;42.39;91096.84;5010018;28;20060;-86
2022/04/01 02:42:30;;;;;;;4.68;2.30;;;;;;;16.20;42.59;91107.00;4993921;28;20116;-87
2022/04/01 02:44:56;;;;;;;3.97;2.20;;;;;;;16.20;42.60;91098.09;4977338;28;20037;-86
2022/04/01 02:47:21;;;;;;;2.88;2.17;;;;;;;16.19;42.64;91091.94;4973595;28;20042;-88
2022/04/01 02:49:47;;;;;;;2.97;2.13;;;;;;;16.19;42.64;91094.66;5007173;28;20037;-86
2022/04/01 02:52:13;;;;;;;3.05;2.28;;;;;;;16.20;42.24;91092.66;4990243;28;20133;-90
2022/04/01 02:54:39;;;;;;;4.30;2.30;;;;;;;16.18;42.41;91089.75;4990517;28;20038;-87
2022/04/01 02:57:05;;;;;;;3.00;2.15;;;;;;;16.20;42.38;91092.66;4973719;28;20046;-86
2022/04/01 02:59:30;;;;;;;3.85;1.92;;;;;;;16.19;42.41;91091.94;4990464;28;20771;-88
2022/04/01 03:01:56;;;;;;;3.92;2.25;;;;;;;16.19;42.51;91094.66;4974244;28;20030;-87
2022/04/01 03:04:21;;;;;;;2.97;2.17;;;;;;;16.19;42.46;91086.47;4989994;28;20144;-87
2022/04/01 03:06:47;;;;;;;3.72;2.22;;;;;;;16.18;42.12;91087.03;4974640;28;20949;-87
2022/04/01 03:09:13;;;;;;;2.53;2.00;;;;;;;16.18;42.25;91090.47;4989635;28;20058;-86
2022/04/01 03:11:39;;;;;;;3.08;2.33;;;;;;;16.18;42.52;91085.03;4973901;28;20059;-88
2022/04/01 03:14:06;;;;;;;2.88;2.30;;;;;;;16.17;42.39;91091.03;4973707;28;20619;-86
2022/04/01 03:16:32;;;;;;;3.10;2.28;;;;;;;16.20;42.23;91089.94;4990343;28;20795;-87
2022/04/01 03:18:59;;;;;;;3.03;2.35;;;;;;;16.17;42.09;91083.56;5006300;28;20025;-86
2022/04/01 03:21:25;;;;;;;3.40;2.25;;;;;;;16.18;42.17;91093.22;5006213;28;20091;-85
2022/04/01 03:23:51;;;;;;;3.13;2.00;;;;;;;16.17;42.25;91083.56;4993326;28;20218;-86
2022/04/01 03:26:16;;;;;;;2.58;2.08;;;;;;;16.17;42.26;91088.31;5008934;28;20120;-87
2022/04/01 03:28:42;;;;;;;3.15;2.30;;;;;;;16.17;42.11;91083.56;5010116;28;20033;-87
2022/04/01 03:31:09;;;;;;;4.10;2.35;;;;;;;16.18;42.02;91076.13;4992934;28;20037;-86
2022/04/01 03:33:36;;;;;;;2.47;2.00;;;;;;;16.17;41.93;91074.69;4993158;28;20060;-86
2022/04/01 03:36:01;;;;;;;2.65;2.20;;;;;;;16.18;42.00;91078.84;4993348;28;20033;-87
2022/04/01 03:38:27;;;;;;;2.70;1.95;;;;;;;16.16;42.01;91084.84;4999833;28;20052;-86
2022/04/01 03:40:52;;;;;;;3.97;2.13;;;;;;;16.17;42.05;91078.13;4990187;28;20417;-86
2022/04/01 03:43:20;;;;;;;4.25;2.33;;;;;;;16.16;42.01;91086.84;4976899;28;20041;-89
2022/04/01 03:45:48;;;;;;;3.25;2.10;;;;;;;16.17;42.12;91083.56;4978369;28;20107;-86
2022/04/01 03:48:23;;;;;;;4.57;2.22;;;;;;;16.17;41.94;91080.13;4954629;28;20034;-88
2022/04/01 03:50:52;;;;;;;4.47;2.20;;;;;;;16.16;42.36;91082.13;4952664;28;20550;-87
2022/04/01 03:53:17;;;;;;;2.17;1.98;;;;;;;16.15;42.33;91077.94;4968001;28;20043;-87
2022/04/01 03:55:43;;;;;;;3.20;2.20;;;;;;;16.18;41.68;91082.31;4968327;28;20178;-87
2022/04/01 03:58:09;;;;;;;2.30;2.10;;;;;;;16.15;41.89;91083.41;4967956;28;20092;-89
2022/04/01 04:00:35;;;;;;;4.47;2.20;;;;;;;16.16;41.91;91087.59;4971919;28;20038;-86
2022/04/01 04:03:06;;;;;;;3.28;2.20;;;;;;;16.16;42.09;91084.84;4949257;28;20031;-86
2022/04/01 04:05:37;;;;;;;2.20;1.80;;;;;;;16.15;42.08;91083.41;4917040;28;20064;-86
2022/04/01 04:08:04;;;;;;;2.72;2.05;;;;;;;16.16;42.09;91086.84;4933449;28;20136;-86
2022/04/01 04:10:30;;;;;;;2.97;2.30;;;;;;;16.14;42.04;91098.31;4949348;28;20073;-86
2022/04/01 04:12:57;;;;;;;4.60;2.40;;;;;;;16.15;42.10;91091.59;4917687;28;20167;-86
2022/04/01 04:15:25;;;;;;;2.63;1.90;;;;;;;16.13;41.90;91083.22;4933914;28;20599;-87
2022/04/01 04:17:52;;;;;;;3.63;2.40;;;;;;;16.14;41.76;91087.41;4936830;28;20308;-86
2022/04/01 04:20:36;;;;;;;2.58;2.08;;;;;;;16.14;42.15;91092.84;4948402;28;20509;-87
2022/04/01 04:23:02;;;;;;;2.88;1.95;;;;;;;16.14;42.13;91083.94;4957356;28;20042;-86
2022/04/01 04:25:36;;;;;;;2.67;2.20;;;;;;;16.14;42.09;91098.31;4967929;28;20835;-86
2022/04/01 04:28:03;;;;;;;7.22;2.10;;;;;;;16.10;41.95;91090.50;4952491;28;20035;-88
2022/04/01 04:30:34;;;;;;;4.10;2.38;;;;;;;16.17;42.14;91093.75;4969448;28;20413;-87
2022/04/01 04:33:04;;;;;;;2.50;1.88;;;;;;;16.22;42.12;91092.84;4971474;28;20050;-85
2022/04/01 04:35:29;;;;;;;5.75;2.25;;;;;;;16.25;42.27;91095.16;4989608;28;20041;-88
2022/04/01 04:37:56;;;;;;;15.13;7.35;;;;;;;16.26;41.89;91088.44;4970385;28;20124;-88
2022/04/01 04:40:22;;;;;;;36.75;25.30;;;;;;;16.31;42.07;91101.13;4996197;28;20053;-91
2022/04/01 04:42:51;;;;;;;8.70;2.88;;;;;;;16.33;42.04;91097.84;4999450;28;20129;-89
2022/04/01 04:45:17;;;;;;;3.78;2.72;;;;;;;16.31;41.80;91100.41;5005108;28;20047;-90
2022/04/01 04:47:42;;;;;;;57.15;40.38;;;;;;;16.36;41.51;91097.47;5019707;28;20055;-89
2022/04/01 04:50:08;;;;;;;14.88;7.40;;;;;;;16.33;41.80;91100.59;5016542;28;20033;-87
2022/04/01 04:52:34;;;;;;;12.48;5.70;;;;;;;16.35;41.39;91104.19;5007946;28;20039;-91
2022/04/01 04:55:03;;;;;;;14.02;5.60;;;;;;;16.34;41.52;91113.66;4999953;28;20416;-91
2022/04/01 04:57:28;;;;;;;21.65;6.55;;;;;;;16.29;41.65;91111.13;4999944;28;20037;-88
2022/04/01 04:59:56;;;;;;;20.02;6.28;;;;;;;16.31;41.18;91117.50;5007714;28;20273;-90
2022/04/01 05:02:26;;;;;;;72.00;30.95;;;;;;;16.30;41.55;91112.59;5003266;28;20049;-88
2022/04/01 05:05:06;;;;;;;40.42;12.00;;;;;;;16.18;39.65;91123.19;5016500;28;20080;-88
2022/04/01 05:08:10;;;;;;;40.57;8.63;;;;;;;16.02;38.67;91133.41;5024908;28;20128;-89
2022/04/01 05:10:52;;;;;;;41.70;10.80;;;;;;;15.85;37.35;91127.81;5048961;28;20102;-89
2022/04/01 05:13:55;;;;;;;27.45;8.60;;;;;;;15.79;36.81;91134.75;5011335;28;20038;-88
2022/04/01 05:16:48;;;;;;;48.30;19.88;;;;;;;15.71;36.30;91140.22;5040256;28;20233;-89
2022/04/01 05:19:14;;;;;;;39.40;15.10;;;;;;;15.61;36.36;91134.59;5028021;28;20053;-92
2022/04/01 05:21:53;;;;;;;109.82;34.05;;;;;;;15.58;36.09;91135.00;5024270;28;20042;-90
2022/04/01 05:24:26;;;;;;;115.25;42.47;;;;;;;15.48;35.91;91140.22;5000236;28;20096;-91
2022/04/01 05:26:52;;;;;;;191.85;65.85;;;;;;;15.44;36.17;91142.59;5041375;28;20047;-92
2022/04/01 05:29:26;;;;;;;128.38;38.28;;;;;;;15.43;36.13;91150.03;5016676;28;20082;-90
2022/04/01 05:32:03;;;;;;;142.77;40.42;;;;;;;15.50;36.04;91142.41;5021915;28;20048;-88
2022/04/01 05:34:45;;;;;;;105.13;29.83;;;;;;;15.46;36.14;91145.50;4989939;28;20550;-89
2022/04/01 05:37:10;;;;;;;106.15;37.80;;;;;;;15.45;35.94;91144.03;5019303;28;20029;-89
2022/04/01 05:39:37;;;;;;;97.97;36.35;;;;;;;15.52;35.57;91154.19;5015175;28;20049;-87
2022/04/01 05:42:07;;;;;;;87.38;33.40;;;;;;;15.55;35.85;91149.66;4997711;28;20091;-90
2022/04/01 05:44:32;;;;;;;99.05;40.53;;;;;;;15.57;35.61;91158.78;4996489;28;20115;-88
2022/04/01 05:46:57;;;;;;;132.50;50.33;;;;;;;15.62;35.94;91154.38;5024353;28;20033;-88
2022/04/01 05:49:23;;;;;;;103.10;37.72;;;;;;;15.68;36.39;91160.38;5001007;28;20049;-90
2022/04/01 05:51:48;;;;;;;72.32;29.85;;;;;;;15.69;36.99;91168.00;5039174;28;20041;-88
2022/04/01 05:54:19;;;;;;;59.35;25.83;;;;;;;15.71;37.11;91162.00;5023441;28;20032;-90
2022/04/01 05:56:47;;;;;;;60.05;25.33;;;;;;;15.71;36.98;91154.56;5032945;28;20065;-91
2022/04/01 05:59:14;;;;;;;61.95;23.17;;;;;;;15.76;37.37;91159.09;5032186;28;20040;-89
2022/04/01 06:01:54;;;;;;;95.78;34.65;;;;;;;15.82;37.67;91160.88;5019517;28;20059;-90
2022/04/01 06:04:53;;;;;;;71.32;29.80;;;;;;;15.84;37.69;91158.34;5040176;28;20151;-89
2022/04/01 06:07:53;;;;;;;59.15;26.75;;;;;;;15.92;38.28;91164.50;5028632;28;20065;-91
2022/04/01 06:10:30;;;;;;;40.92;22.40;;;;;;;15.90;38.39;91165.06;5047391;28;20040;-91
2022/04/01 06:13:16;;;;;;;47.35;24.15;;;;;;;15.94;38.11;91168.13;5014784;28;20115;-88
2022/04/01 06:15:47;;;;;;;63.53;22.88;;;;;;;15.95;38.00;91166.88;5029868;28;20543;-89
2022/04/01 06:18:26;;;;;;;55.70;23.77;;;;;;;16.03;37.75;91169.56;5016043;28;20033;-88
2022/04/01 06:20:52;;;;;;;33.30;18.40;;;;;;;16.01;37.95;91163.94;5050279;28;20040;-89
2022/04/01 06:23:26;;;;;;;45.33;22.70;;;;;;;16.01;37.50;91166.69;5006729;28;20431;-89
2022/04/01 06:25:58;;;;;;;39.55;22.30;;;;;;;15.99;37.52;91159.06;5032784;28;20051;-89
2022/04/01 06:28:25;;;;;;;45.28;23.55;;;;;;;16.00;37.36;91171.41;4985374;28;20041;-87
2022/04/01 06:30:53;;;;;;;44.22;22.15;;;;;;;16.00;37.41;91171.41;5018232;28;20107;-88
2022/04/01 06:33:53;;;;;;;48.75;23.10;;;;;;;15.98;37.58;91165.78;4993502;28;20094;-86
2022/04/01 06:36:22;;;;;;;45.00;22.05;;;;;;;15.96;37.71;91176.50;4996828;28;20594;-89
2022/04/01 06:38:54;;;;;;;48.00;21.25;;;;;;;15.96;37.64;91168.31;4978217;28;20045;-88
2022/04/01 06:41:21;;;;;;;53.50;23.08;;;;;;;15.95;37.59;91172.31;4993859;28;20056;-92
2022/04/01 06:43:48;;;;;;;69.57;24.60;;;;;;;16.01;37.54;91164.69;4979937;28;20081;-88
2022/04/01 06:46:13;;;;;;;62.25;24.65;;;;;;;15.98;37.68;91176.66;5020795;28;20073;-87
2022/04/01 06:48:40;;;;;;;45.20;23.70;;;;;;;15.96;37.76;91178.50;5017917;28;20045;-86
2022/04/01 06:51:08;;;;;;;49.92;24.70;;;;;;;15.98;37.75;91179.41;4998175;28;20073;-85
2022/04/01 06:53:37;;;;;;;46.47;26.20;;;;;;;16.00;37.55;91170.69;4991596;28;20046;-86
2022/04/01 06:56:03;;;;;;;48.33;24.67;;;;;;;15.99;37.82;91178.13;4988950;28;20038;-88
2022/04/01 06:58:30;;;;;;;60.45;28.02;;;;;;;15.99;37.78;91171.94;5007995;28;20050;-88
2022/04/01 07:00:55;;;;;;;57.55;28.60;;;;;;;15.99;37.72;91183.56;5007016;28;20072;-89
2022/04/01 07:03:21;;;;;;;54.38;26.80;;;;;;;16.00;38.23;91181.56;5004406;28;20033;-87
2022/04/01 07:05:47;;;;;;;67.90;31.88;;;;;;;16.05;37.41;91183.34;4979521;28;20555;-87
2022/04/01 07:08:12;;;;;;;65.80;32.78;;;;;;;16.01;37.60;91181.03;4993147;28;20095;-91
2022/04/01 07:10:39;;;;;;;56.63;28.45;;;;;;;16.06;37.90;91195.72;5016586;28;20411;-92
2022/04/01 07:13:04;;;;;;;61.83;31.70;;;;;;;16.05;37.29;91186.09;5011758;28;20037;-91
2022/04/01 07:15:30;;;;;;;66.70;31.00;;;;;;;16.04;37.69;91192.81;5021500;28;20407;-87
2022/04/01 07:17:56;;;;;;;57.58;30.10;;;;;;;16.03;37.54;91188.63;5004842;28;20048;-89
2022/04/01 07:20:21;;;;;;;57.88;29.80;;;;;;;16.03;37.68;91196.81;4951889;28;20053;-88
2022/04/01 07:22:47;;;;;;;54.60;28.08;;;;;;;16.02;37.80;91185.19;4935921;28;20042;-88
2022/04/01 07:25:12;;;;;;;50.50;24.33;;;;;;;16.04;37.88;91192.81;4953379;28;20097;-91
2022/04/01 07:27:38;;;;;;;51.28;26.92;;;;;;;16.04;37.72;91195.53;4937660;28;20495;-89
2022/04/01 07:30:08;;;;;;;47.13;24.55;;;;;;;16.03;38.19;91197.53;4964691;28;20039;-90
2022/04/01 07:32:33;;;;;;;44.13;22.65;;;;;;;16.08;37.40;91196.63;4956219;28;20064;-87
2022/04/01 07:35:02;;;;;;;56.80;25.92;;;;;;;16.05;37.87;91196.97;4977012;28;20649;-86
2022/04/01 07:37:28;;;;;;;50.95;24.17;;;;;;;16.05;37.79;91189.53;4981471;28;20046;-87
2022/04/01 07:39:54;;;;;;;43.15;21.95;;;;;;;16.09;37.93;91197.34;4961673;28;20046;-88
2022/04/01 07:42:21;;;;;;;49.03;23.52;;;;;;;16.09;37.57;91203.53;4964996;28;20043;-90
2022/04/01 07:44:49;;;;;;;37.00;20.90;;;;;;;16.06;37.59;91206.63;4968223;28;20132;-87
2022/04/01 07:47:15;;;;;;;34.17;18.60;;;;;;;16.07;38.01;91205.34;4970600;28;20507;-90
2022/04/01 07:49:41;;;;;;;37.50;19.92;;;;;;;16.04;37.46;91209.16;4957436;28;20042;-89
2022/04/01 07:52:10;;;;;;;17.92;11.13;;;;;;;15.84;36.12;91208.09;4988386;28;20184;-88
2022/04/01 07:54:37;;;;;;;22.05;11.77;;;;;;;15.71;35.67;91213.75;5006418;28;20202;-86
2022/04/01 07:57:06;;;;;;;26.98;11.70;;;;;;;15.64;35.05;91222.66;5012301;28;20108;-86
2022/04/01 07:59:32;;;;;;;32.58;16.30;;;;;;;15.54;35.05;91216.28;5016246;28;20090;-89
2022/04/01 08:01:57;;;;;;;19.20;9.95;;;;;;;15.44;35.18;91218.81;5016915;28;20045;-85
2022/04/01 08:04:25;;;;;;;24.33;12.05;;;;;;;15.33;35.02;91219.91;5030877;28;20045;-86
2022/04/01 08:06:51;;;;;;;30.75;14.13;;;;;;;15.26;34.78;91228.78;5003984;28;20044;-90
2022/04/01 08:09:17;;;;;;;44.42;19.52;;;;;;;15.16;35.28;91235.28;5018449;28;20119;-88
2022/04/01 08:11:42;;;;;;;37.38;18.80;;;;;;;15.13;34.84;91244.56;5051569;28;20033;-91
2022/04/01 08:14:07;;;;;;;31.25;14.63;;;;;;;15.09;35.13;91248.38;4998446;28;20510;-85
2022/04/01 08:16:33;;;;;;;26.00;11.63;;;;;;;15.07;34.96;91252.91;5025335;28;20381;-84
2022/04/01 08:18:59;;;;;;;23.88;10.63;;;;;;;15.05;34.93;91244.53;5007500;28;20033;-84
2022/04/01 08:21:24;;;;;;;16.08;7.72;;;;;;;14.97;35.29;91251.94;5020135;28;20507;-85
2022/04/01 08:23:50;;;;;;;21.08;8.35;;;;;;;15.01;34.89;91246.88;5027279;28;20044;-90
2022/04/01 08:26:15;;;;;;;16.83;7.07;;;;;;;14.95;34.45;91257.19;5032087;28;20036;-88
2022/04/01 08:28:41;;;;;;;25.20;8.05;;;;;;;14.92;35.57;91250.88;5025908;28;20044;-89
2022/04/01 08:31:07;;;;;;;13.43;6.90;;;;;;;14.94;34.56;91259.19;5013741;28;20049;-86
2022/04/01 08:33:33;;;;;;;21.10;7.93;;;;;;;14.99;34.77;91257.59;5001139;28;20381;-88
2022/04/01 08:36:00;;;;;;;22.00;8.30;;;;;;;15.04;34.78;91262.88;4981412;28;20048;-90
2022/04/01 08:38:25;;;;;;;19.52;7.63;;;;;;;15.12;35.18;91259.44;4999762;28;20037;-90
2022/04/01 08:40:51;;;;;;;19.10;7.50;;;;;;;15.12;36.13;91254.00;5005442;28;20033;-87
2022/04/01 08:43:30;;;;;;;18.42;7.82;;;;;;;15.20;36.01;91255.44;5007248;28;20045;-85
2022/04/01 08:45:56;;;;;;;19.70;8.23;;;;;;;15.23;36.21;91267.97;4993248;28;20707;-86
2022/04/01 08:48:22;;;;;;;30.63;9.38;;;;;;;15.27;37.08;91270.34;5002110;28;21725;-86
2022/04/01 08:50:47;;;;;;;24.70;8.52;;;;;;;15.30;38.04;91266.53;4996485;28;20601;-89
2022/04/01 08:53:13;;;;;;;18.63;8.40;;;;;;;15.31;39.06;91260.56;5011043;28;20207;-87
2022/04/01 08:55:38;;;;;;;25.27;8.23;;;;;;;15.35;38.67;91262.94;5007628;28;20037;-86
2022/04/01 08:58:04;;;;;;;36.10;10.07;;;;;;;15.35;39.20;91258.22;5023834;28;20051;-86
2022/04/01 09:00:30;;;;;;;19.60;8.82;;;;;;;15.35;39.53;91260.22;4975333;28;20984;-88
2022/04/01 09:03:06;;;;;;;22.33;7.32;;;;;;;15.34;37.31;91270.38;5008013;28;20060;-88
2022/04/01 09:05:32;;;;;;;24.70;7.95;;;;;;;15.33;37.33;91271.63;4980271;28;20500;-89
2022/04/01 09:08:07;;;;;;;22.20;8.30;;;;;;;15.38;37.04;91278.16;4994111;28;20053;-89
2022/04/01 09:11:01;;;;;;;20.90;7.70;;;;;;;15.52;37.40;91276.00;4988174;28;20038;-91
2022/04/01 09:13:29;;;;;;;41.70;9.90;;;;;;;15.55;37.45;91277.66;5007230;28;20036;-89
2022/04/01 09:15:55;;;;;;;39.55;10.15;;;;;;;15.54;37.52;91279.66;5008087;28;20026;-87
2022/04/01 09:18:36;;;;;;;54.42;13.20;;;;;;;15.56;37.51;91277.13;4984125;28;20026;-84
2022/04/01 09:21:01;;;;;;;53.35;13.80;;;;;;;15.58;37.10;91282.75;5069800;22;20044;-90
2022/04/01 09:23:27;;;;;;;45.60;13.60;;;;;;;15.62;37.19;91283.09;5092476;28;20040;-88
2022/04/01 09:25:53;;;;;;;53.97;12.30;;;;;;;15.62;37.43;91287.84;5057855;28;20075;-89
2022/04/01 09:28:34;;;;;;;53.90;13.15;;;;;;;15.70;37.51;91286.56;5059205;28;20164;-90
2022/04/01 09:31:06;;;;;;;51.42;14.13;;;;;;;15.76;37.59;91287.13;5061687;28;20036;-93
2022/04/01 09:33:47;;;;;;;44.30;13.48;;;;;;;15.73;37.09;91285.50;5070615;28;20054;-93
2022/04/01 09:36:17;;;;;;;37.20;13.65;;;;;;;15.75;37.13;91285.69;5058555;28;20120;-93
2022/04/01 09:38:58;;;;;;;40.72;13.85;;;;;;;15.77;37.12;91287.84;5036439;28;20045;-93
2022/04/01 09:41:28;;;;;;;34.67;15.50;;;;;;;15.75;37.00;91285.69;5052344;28;20068;-93
2022/04/01 09:44:06;;;;;;;50.90;18.38;;;;;;;15.76;36.80;91291.84;5025654;28;20092;-93
2022/04/01 09:46:31;;;;;;;45.05;16.25;;;;;;;15.74;37.26;91291.66;5049831;28;20044;-90
2022/04/01 09:48:57;;;;;;;39.13;15.55;;;;;;;15.76;37.15;91291.84;5029868;28;20032;-90
2022/04/01 09:51:23;;;;;;;292.73;33.20;;;;;;;15.76;36.86;91286.41;5038083;28;20250;-90
2022/04/01 09:53:53;;;;;;;488.05;50.38;;;;;;;15.74;36.80;91286.94;5045288;28;20051;-92
2022/04/01 09:56:19;;;;;;;441.45;44.88;;;;;;;15.75;37.33;91290.41;5021664;28;20117;-92
2022/04/01 09:58:44;;;;;;;203.55;27.67;;;;;;;15.84;37.28;91292.56;5033591;28;20064;-94
2022/04/01 10:01:10;;;;;;;98.47;18.02;;;;;;;15.80;37.29;91286.78;5048413;28;20036;-92
2022/04/01 10:03:38;;;;;;;75.28;17.25;;;;;;;15.78;37.41;91294.75;5038660;28;20071;-93
2022/04/01 10:06:04;;;;;;;78.50;16.73;;;;;;;15.83;37.46;91288.38;5021247;28;20564;-95
2022/04/01 10:08:30;;;;;;;70.90;16.23;;;;;;;15.84;37.68;91289.09;5036952;28;20044;-95
2022/04/01 10:10:56;;;;;;;62.85;16.10;;;;;;;15.83;37.67;91287.66;5039787;28;20032;-94
2022/04/01 10:13:24;;;;;;;39.42;15.07;;;;;;;15.82;37.69;91288.91;5041381;28;20036;-94
2022/04/01 10:15:50;;;;;;;39.35;14.55;;;;;;;15.81;37.86;91288.19;5028215;28;20054;-93
2022/04/01 10:18:25;;;;;;;48.35;15.68;;;;;;;15.81;37.78;91287.47;5033870;28;20036;-91
2022/04/01 10:20:55;;;;;;;41.40;14.80;;;;;;;15.80;37.96;91294.22;5046401;28;20033;-95
2022/04/01 10:23:21;;;;;;;49.20;14.90;;;;;;;15.82;37.95;91295.09;5061153;28;20029;-90
2022/04/01 10:25:59;;;;;;;38.45;13.13;;;;;;;15.82;38.19;91297.81;5054116;28;20040;-95
2022/04/01 10:28:26;;;;;;;34.60;13.27;;;;;;;15.81;38.14;91301.09;5046918;28;20033;-89
2022/04/01 10:30:59;;;;;;;36.35;12.27;;;;;;;15.82;38.08;91300.53;5014800;28;20037;-95
2022/04/01 10:33:26;;;;;;;29.25;12.73;;;;;;;15.86;37.97;91309.09;4998153;28;20053;-92
2022/04/01 10:35:55;;;;;;;39.10;13.52;;;;;;;15.82;37.97;91305.28;5013236;28;20192;-95
2022/04/01 10:38:21;;;;;;;36.25;11.88;;;;;;;15.82;38.19;91300.53;4995607;28;20072;-93
2022/04/01 10:40:52;;;;;;;40.00;13.98;;;;;;;15.82;38.19;91297.81;5013726;28;20034;-93
2022/04/01 10:43:21;;;;;;;38.30;11.82;;;;;;;15.84;38.21;91308.19;4983624;28;20060;-92
2022/04/01 10:45:59;;;;;;;31.70;11.60;;;;;;;15.83;38.44;91304.00;5019841;28;20052;-91
2022/04/01 10:51:37;;;;;;;35.35;11.75;;;;;;;15.85;38.21;91299.47;4997791;28;20040;-92
2022/04/01 10:54:23;;;;;;;26.10;11.18;;;;;;;15.84;38.09;91305.44;4978182;28;20769;-92
2022/04/01 10:56:55;;;;;;;28.13;10.75;;;;;;;15.83;38.28;91307.44;4968579;28;20049;-91
2022/04/01 10:59:24;;;;;;;24.35;11.68;;;;;;;15.84;38.39;91311.63;4951274;28;20065;-94
2022/04/01 11:01:53;;;;;;;24.80;11.35;;;;;;;15.83;38.30;91310.19;4935521;28;20043;-92
2022/04/01 11:04:19;;;;;;;24.83;10.02;;;;;;;15.83;38.58;91315.63;4967433;28;20047;-90
2022/04/01 11:07:02;;;;;;;23.27;9.88;;;;;;;15.84;38.35;91313.63;4952137;28;20648;-90
2022/04/01 11:09:53;;;;;;;22.17;10.45;;;;;;;15.86;38.38;91311.09;4954488;28;20560;-93
2022/04/01 11:12:36;;;;;;;21.52;9.50;;;;;;;15.84;38.25;91311.63;4930147;28;20133;-91
2022/04/01 11:15:11;;;;;;;23.85;9.10;;;;;;;15.85;38.11;91301.47;4964134;28;20043;-94
2022/04/01 11:17:37;;;;;;;20.88;9.20;;;;;;;15.83;37.84;91296.56;4994457;28;20045;-93
2022/04/01 11:20:04;;;;;;;22.85;9.32;;;;;;;15.84;38.37;91303.47;4967304;28;20126;-90
2022/04/01 11:22:37;;;;;;;17.55;8.50;;;;;;;15.83;37.98;91304.72;4967038;28;20150;-91
2022/04/01 11:25:05;;;;;;;27.92;10.20;;;;;;;15.82;38.06;91297.09;4965957;28;20046;-93
2022/04/01 11:27:30;;;;;;;20.67;8.02;;;;;;;15.67;37.42;91301.28;4939569;28;20065;-90
2022/04/01 11:30:13;;;;;;;17.58;7.40;;;;;;;15.56;36.96;91309.81;4988285;28;20058;-92
2022/04/01 11:32:40;;;;;;;28.48;9.13;;;;;;;15.53;36.78;91301.97;4959016;28;20412;-94
2022/04/01 11:35:07;;;;;;;17.13;8.52;;;;;;;15.47;36.22;91302.13;5033665;28;20439;-94
2022/04/01 11:37:37;;;;;;;20.33;8.95;;;;;;;15.46;36.00;91300.69;5018351;28;20039;-92
2022/04/01 11:40:13;;;;;;;23.48;10.10;;;;;;;15.50;36.17;91308.50;5017815;28;20028;-94